createdAt,value
2016-07-02T00:00:09.916Z,20.19
2016-07-02T00:01:09.908Z,20.09
2016-07-02T00:02:09.258Z,19.95
2016-07-02T00:03:09.881Z,19.94
2016-07-02T00:04:08.589Z,19.94
2016-07-02T00:05:09.845Z,19.96
2016-07-02T00:06:09.828Z,20.02
2016-07-02T00:07:09.187Z,19.89
2016-07-02T00:08:09.160Z,19.88
2016-07-02T00:09:09.785Z,19.94
2016-07-02T00:10:09.134Z,19.99
2016-07-02T00:11:09.758Z,19.76
2016-07-02T00:12:09.742Z,19.99
2016-07-02T00:13:09.721Z,20.11
2016-07-02T00:14:09.713Z,20.04
2016-07-02T00:15:09.698Z,20.02
2016-07-02T00:16:08.418Z,20.03
2016-07-02T00:17:09.674Z,19.95
2016-07-02T00:18:09.680Z,20.03
2016-07-02T00:19:08.375Z,20.13
2016-07-02T00:20:08.994Z,20
2016-07-02T00:21:09.612Z,19.88
2016-07-02T00:22:09.594Z,19.95
2016-07-02T00:23:09.585Z,20.07
2016-07-02T00:24:08.937Z,20.03
2016-07-02T00:25:08.920Z,20.04
2016-07-02T00:26:09.542Z,20.18
2016-07-02T00:27:09.535Z,19.92
2016-07-02T00:28:09.506Z,19.99
2016-07-02T00:29:08.858Z,19.99
2016-07-02T00:30:08.849Z,19.89
2016-07-02T00:31:09.464Z,19.79
2016-07-02T00:32:09.445Z,19.86
2016-07-02T00:33:09.435Z,19.91
2016-07-02T00:34:08.788Z,19.99
2016-07-02T00:35:08.771Z,19.95
2016-07-02T00:36:08.762Z,19.92
2016-07-02T00:37:09.375Z,19.88
2016-07-02T00:38:08.719Z,19.94
2016-07-02T00:39:09.351Z,19.94
2016-07-02T00:40:09.333Z,20.1
2016-07-02T00:41:09.316Z,19.91
2016-07-02T00:42:08.660Z,19.84
2016-07-02T00:43:09.291Z,19.91
2016-07-02T00:44:08.638Z,19.84
2016-07-02T00:45:07.992Z,19.88
2016-07-02T00:46:09.245Z,19.91
2016-07-02T00:47:08.591Z,19.73
2016-07-02T00:48:09.210Z,19.77
2016-07-02T00:49:09.203Z,19.66
2016-07-02T00:50:08.554Z,19.67
2016-07-02T00:51:08.534Z,19.77
2016-07-02T00:52:09.157Z,19.76
2016-07-02T00:53:09.127Z,19.86
2016-07-02T00:54:09.124Z,19.74
2016-07-02T00:55:08.483Z,19.74
2016-07-02T00:56:08.456Z,19.81
2016-07-02T00:57:08.459Z,19.88
2016-07-02T00:58:09.065Z,19.92
2016-07-02T00:59:09.053Z,19.91
2016-07-02T01:00:08.405Z,19.73
2016-07-02T01:01:09.028Z,19.51
2016-07-02T01:02:09.009Z,19.54
2016-07-02T01:03:08.989Z,19.59
2016-07-02T01:04:08.982Z,19.69
2016-07-02T01:05:08.332Z,19.67
2016-07-02T01:06:08.317Z,19.56
2016-07-02T01:07:08.940Z,19.81
2016-07-02T01:08:08.325Z,19.76
2016-07-02T01:09:08.918Z,19.73
2016-07-02T01:10:08.252Z,19.69
2016-07-02T01:11:08.875Z,19.79
2016-07-02T01:12:08.220Z,19.63
2016-07-02T01:13:08.843Z,19.74
2016-07-02T01:14:08.826Z,19.86
2016-07-02T01:15:08.818Z,19.82
2016-07-02T01:16:08.809Z,19.69
2016-07-02T01:17:08.782Z,19.92
2016-07-02T01:18:08.143Z,19.69
2016-07-02T01:19:08.128Z,19.76
2016-07-02T01:20:08.109Z,19.89
2016-07-02T01:21:08.730Z,20
2016-07-02T01:22:08.712Z,20.1
2016-07-02T01:23:08.693Z,20.09
2016-07-02T01:24:08.683Z,20.06
2016-07-02T01:25:08.663Z,19.86
2016-07-02T01:26:08.649Z,19.99
2016-07-02T01:27:08.634Z,19.84
2016-07-02T01:28:08.626Z,19.89
2016-07-02T01:29:07.977Z,19.81
2016-07-02T01:30:08.588Z,19.88
2016-07-02T01:31:07.318Z,19.89
2016-07-02T01:32:08.713Z,19.85
2016-07-02T01:33:08.545Z,19.91
2016-07-02T01:34:08.539Z,19.92
2016-07-02T01:35:07.897Z,19.99
2016-07-02T01:36:07.875Z,19.86
2016-07-02T01:37:07.865Z,19.77
2016-07-02T01:38:07.849Z,19.67
2016-07-02T01:39:08.461Z,19.69
2016-07-02T01:40:07.821Z,19.71
2016-07-02T01:41:07.806Z,19.84
2016-07-02T01:42:07.787Z,19.64
2016-07-02T01:43:08.410Z,19.77
2016-07-02T01:44:07.752Z,19.85
2016-07-02T01:45:08.375Z,19.74
2016-07-02T01:46:07.727Z,19.69
2016-07-02T01:47:08.350Z,19.69
2016-07-02T01:48:08.328Z,19.63
2016-07-02T01:49:08.315Z,19.64
2016-07-02T01:50:07.675Z,19.88
2016-07-02T01:51:07.658Z,19.91
2016-07-02T01:52:08.269Z,19.76
2016-07-02T01:53:08.254Z,19.66
2016-07-02T01:54:08.246Z,19.66
2016-07-02T01:55:08.235Z,19.74
2016-07-02T01:56:07.576Z,19.71
2016-07-02T01:57:08.222Z,19.7
2016-07-02T01:58:08.185Z,19.74
2016-07-02T01:59:07.546Z,19.89
2016-07-02T02:00:07.529Z,19.85
2016-07-02T02:01:06.878Z,19.85
2016-07-02T02:02:08.123Z,19.92
2016-07-02T02:03:08.120Z,19.79
2016-07-02T02:04:06.835Z,19.96
2016-07-02T02:05:08.085Z,19.84
2016-07-02T02:06:08.065Z,19.77
2016-07-02T02:07:07.414Z,19.85
2016-07-02T02:08:07.396Z,19.81
2016-07-02T02:09:08.027Z,19.77
2016-07-02T02:10:07.373Z,19.67
2016-07-02T02:11:07.361Z,19.51
2016-07-02T02:12:07.342Z,19.49
2016-07-02T02:13:07.336Z,19.52
2016-07-02T02:14:07.947Z,19.62
2016-07-02T02:15:07.290Z,19.55
2016-07-02T02:16:07.293Z,19.47
2016-07-02T02:17:07.913Z,19.39
2016-07-02T02:18:07.889Z,19.36
2016-07-02T02:19:07.881Z,19.41
2016-07-02T02:20:07.232Z,19.47
2016-07-02T02:21:07.844Z,19.36
2016-07-02T02:22:07.833Z,19.47
2016-07-02T02:23:07.825Z,19.51
2016-07-02T02:24:07.170Z,19.48
2016-07-02T02:25:07.787Z,19.41
2016-07-02T02:26:07.775Z,19.52
2016-07-02T02:27:07.760Z,19.4
2016-07-02T02:28:07.113Z,19.47
2016-07-02T02:29:07.733Z,19.54
2016-07-02T02:30:07.716Z,19.55
2016-07-02T02:31:07.063Z,19.44
2016-07-02T02:32:07.058Z,19.36
2016-07-02T02:33:07.040Z,19.52
2016-07-02T02:34:07.663Z,19.52
2016-07-02T02:35:07.019Z,19.54
2016-07-02T02:36:06.998Z,19.54
2016-07-02T02:37:07.611Z,19.56
2016-07-02T02:38:06.970Z,19.41
2016-07-02T02:39:07.595Z,19.41
2016-07-02T02:40:06.938Z,19.44
2016-07-02T02:41:06.921Z,19.54
2016-07-02T02:42:06.902Z,19.66
2016-07-02T02:43:07.523Z,19.48
2016-07-02T02:44:07.505Z,19.44
2016-07-02T02:45:06.250Z,19.51
2016-07-02T02:46:07.482Z,19.52
2016-07-02T02:47:06.833Z,19.48
2016-07-02T02:48:07.454Z,19.45
2016-07-02T02:49:06.808Z,19.31
2016-07-02T02:50:06.788Z,19.37
2016-07-02T02:51:06.779Z,19.22
2016-07-02T02:52:06.762Z,19.22
2016-07-02T02:53:06.752Z,19.29
2016-07-02T02:54:07.356Z,19.24
2016-07-02T02:55:07.349Z,19.26
2016-07-02T02:56:07.331Z,19.44
2016-07-02T02:57:06.684Z,19.52
2016-07-02T02:58:07.303Z,19.39
2016-07-02T02:59:06.657Z,19.31
2016-07-02T03:00:06.639Z,19.26
2016-07-02T03:01:07.263Z,19.4
2016-07-02T03:02:07.246Z,19.44
2016-07-02T03:03:06.595Z,19.4
2016-07-02T03:04:07.219Z,19.41
2016-07-02T03:05:06.571Z,19.33
2016-07-02T03:06:07.182Z,19.21
2016-07-02T03:07:06.542Z,19.26
2016-07-02T03:08:07.157Z,19.27
2016-07-02T03:09:05.880Z,19.26
2016-07-02T03:10:07.122Z,19.3
2016-07-02T03:11:07.112Z,19.22
2016-07-02T03:12:06.454Z,19.24
2016-07-02T03:13:07.077Z,19.19
2016-07-02T03:14:07.059Z,19.26
2016-07-02T03:15:07.052Z,19.3
2016-07-02T03:16:06.403Z,19.3
2016-07-02T03:17:06.396Z,19.29
2016-07-02T03:18:07.009Z,19.29
2016-07-02T03:19:06.356Z,19.19
2016-07-02T03:20:06.342Z,19.22
2016-07-02T03:21:06.967Z,19.15
2016-07-02T03:22:06.946Z,19.21
2016-07-02T03:23:06.299Z,19.19
2016-07-02T03:24:06.930Z,19.27
2016-07-02T03:25:05.630Z,19.22
2016-07-02T03:26:06.886Z,19.29
2016-07-02T03:27:06.866Z,19.29
2016-07-02T03:28:06.859Z,19.22
2016-07-02T03:29:06.231Z,19.3
2016-07-02T03:30:06.840Z,19.21
2016-07-02T03:31:06.816Z,19.18
2016-07-02T03:32:06.799Z,19.18
2016-07-02T03:33:06.783Z,19.18
2016-07-02T03:34:06.144Z,19.19
2016-07-02T03:35:06.760Z,19.29
2016-07-02T03:36:06.107Z,19.22
2016-07-02T03:37:06.719Z,19.24
2016-07-02T03:38:05.450Z,19.33
2016-07-02T03:39:06.692Z,19.19
2016-07-02T03:40:06.047Z,19.3
2016-07-02T03:41:06.667Z,19.33
2016-07-02T03:42:05.386Z,19.27
2016-07-02T03:43:06.630Z,19.26
2016-07-02T03:44:05.990Z,19.39
2016-07-02T03:45:06.606Z,19.34
2016-07-02T03:46:05.960Z,19.12
2016-07-02T03:47:06.571Z,19.09
2016-07-02T03:48:05.932Z,19.27
2016-07-02T03:49:05.913Z,19.4
2016-07-02T03:50:05.898Z,19.19
2016-07-02T03:51:06.518Z,19.34
2016-07-02T03:52:05.872Z,19.47
2016-07-02T03:53:05.853Z,19.37
2016-07-02T03:54:06.479Z,19.48
2016-07-02T03:55:06.458Z,19.45
2016-07-02T03:56:05.811Z,19.36
2016-07-02T03:57:06.420Z,19.29
2016-07-02T03:58:05.156Z,19.16
2016-07-02T03:59:05.780Z,19.26
2016-07-02T04:00:06.384Z,19.24
2016-07-02T04:01:06.385Z,19.27
2016-07-02T04:02:06.357Z,19.27
2016-07-02T04:03:05.071Z,19.4
2016-07-02T04:04:05.701Z,19.47
2016-07-02T04:05:06.318Z,19.36
2016-07-02T04:06:06.296Z,19.52
2016-07-02T04:07:05.646Z,19.47
2016-07-02T04:08:05.641Z,19.29
2016-07-02T04:09:05.613Z,19.29
2016-07-02T04:10:06.228Z,19.37
2016-07-02T04:11:04.946Z,19.31
2016-07-02T04:12:06.207Z,19.26
2016-07-02T04:13:05.548Z,19.22
2016-07-02T04:14:06.179Z,19.22
2016-07-02T04:15:04.894Z,19.26
2016-07-02T04:16:05.517Z,19.27
2016-07-02T04:17:05.501Z,19.29
2016-07-02T04:18:05.489Z,19.33
2016-07-02T04:19:05.470Z,19.18
2016-07-02T04:20:06.087Z,19.21
2016-07-02T04:21:05.437Z,19.29
2016-07-02T04:22:05.430Z,19.18
2016-07-02T04:23:05.408Z,19.21
2016-07-02T04:24:06.036Z,19.36
2016-07-02T04:25:04.746Z,19.39
2016-07-02T04:26:06.009Z,19.29
2016-07-02T04:27:05.983Z,19.19
2016-07-02T04:28:05.344Z,19.27
2016-07-02T04:29:05.957Z,19.26
2016-07-02T04:30:05.310Z,19.12
2016-07-02T04:31:04.671Z,19.16
2016-07-02T04:32:05.287Z,19.18
2016-07-02T04:33:05.895Z,19.09
2016-07-02T04:34:05.889Z,19
2016-07-02T04:35:05.871Z,19.07
2016-07-02T04:36:04.590Z,19
2016-07-02T04:37:05.841Z,19.02
2016-07-02T04:38:05.185Z,19.19
2016-07-02T04:39:05.823Z,19.18
2016-07-02T04:40:05.153Z,19.14
2016-07-02T04:41:05.775Z,19
2016-07-02T04:42:05.126Z,19.07
2016-07-02T04:43:04.486Z,19.09
2016-07-02T04:44:05.096Z,19.07
2016-07-02T04:45:05.725Z,19.18
2016-07-02T04:46:05.707Z,19.04
2016-07-02T04:47:05.700Z,19.16
2016-07-02T04:48:05.684Z,19.04
2016-07-02T04:49:05.037Z,19.09
2016-07-02T04:50:05.018Z,19.14
2016-07-02T04:51:05.639Z,19.09
2016-07-02T04:52:05.624Z,19.08
2016-07-02T04:53:05.606Z,19.19
2016-07-02T04:54:05.586Z,19
2016-07-02T04:55:04.937Z,19.04
2016-07-02T04:56:05.557Z,18.99
2016-07-02T04:57:05.532Z,19
2016-07-02T04:58:04.264Z,19.02
2016-07-02T04:59:05.515Z,18.99
2016-07-02T05:00:05.499Z,18.83
2016-07-02T05:01:05.490Z,18.98
2016-07-02T05:02:05.471Z,18.99
2016-07-02T05:03:04.824Z,18.92
2016-07-02T05:04:05.448Z,18.93
2016-07-02T05:05:05.427Z,18.92
2016-07-02T05:06:04.783Z,18.96
2016-07-02T05:07:05.391Z,18.99
2016-07-02T05:08:05.383Z,18.88
2016-07-02T05:09:05.368Z,18.83
2016-07-02T05:10:05.339Z,19.04
2016-07-02T05:11:04.701Z,19.02
2016-07-02T05:12:05.329Z,18.96
2016-07-02T05:13:05.307Z,19.15
2016-07-02T05:14:05.290Z,19.21
2016-07-02T05:15:05.281Z,19.08
2016-07-02T05:16:05.252Z,19.21
2016-07-02T05:17:04.612Z,19.18
2016-07-02T05:18:05.225Z,19.11
2016-07-02T05:19:04.579Z,18.99
2016-07-02T05:20:05.202Z,19.07
2016-07-02T05:21:04.554Z,19.11
2016-07-02T05:22:04.546Z,19.07
2016-07-02T05:23:04.528Z,18.93
2016-07-02T05:24:04.511Z,18.93
2016-07-02T05:25:05.132Z,19.04
2016-07-02T05:26:05.118Z,19.15
2016-07-02T05:27:04.467Z,18.98
2016-07-02T05:28:05.080Z,19.07
2016-07-02T05:29:04.440Z,19.07
2016-07-02T05:30:04.420Z,19
2016-07-02T05:31:05.036Z,19
2016-07-02T05:32:05.022Z,19.07
2016-07-02T05:33:05.011Z,19.07
2016-07-02T05:34:04.361Z,19.15
2016-07-02T05:35:04.976Z,19.11
2016-07-02T05:36:04.966Z,18.95
2016-07-02T05:37:04.321Z,19.16
2016-07-02T05:38:04.932Z,19
2016-07-02T05:39:04.919Z,19.09
2016-07-02T05:40:04.270Z,19.19
2016-07-02T05:41:04.895Z,19.07
2016-07-02T05:42:04.239Z,19.21
2016-07-02T05:43:04.230Z,19.19
2016-07-02T05:44:03.581Z,19.02
2016-07-02T05:45:04.826Z,19.08
2016-07-02T05:46:04.179Z,19.11
2016-07-02T05:47:04.176Z,19
2016-07-02T05:48:04.782Z,18.96
2016-07-02T05:49:04.769Z,19.07
2016-07-02T05:50:04.754Z,19.29
2016-07-02T05:51:04.739Z,19.08
2016-07-02T05:52:04.719Z,19.18
2016-07-02T05:53:04.714Z,19.26
2016-07-02T05:54:04.059Z,19.24
2016-07-02T05:55:04.045Z,19.16
2016-07-02T05:56:04.669Z,19.22
2016-07-02T05:57:04.020Z,19.19
2016-07-02T05:58:04.633Z,19.21
2016-07-02T05:59:04.612Z,19.15
2016-07-02T06:00:04.607Z,19.18
2016-07-02T06:01:04.590Z,19.19
2016-07-02T06:02:04.571Z,19.16
2016-07-02T06:03:04.564Z,19.26
2016-07-02T06:04:03.912Z,19.33
2016-07-02T06:05:03.899Z,19.16
2016-07-02T06:06:03.879Z,19.24
2016-07-02T06:07:03.878Z,19.29
2016-07-02T06:08:04.483Z,19.19
2016-07-02T06:09:04.468Z,19.18
2016-07-02T06:10:03.828Z,19.19
2016-07-02T06:11:04.440Z,19.26
2016-07-02T06:12:03.780Z,19.29
2016-07-02T06:13:04.406Z,19.4
2016-07-02T06:14:03.759Z,19.36
2016-07-02T06:15:03.749Z,19.37
2016-07-02T06:16:04.637Z,19.33
2016-07-02T06:17:04.352Z,19.36
2016-07-02T06:18:03.695Z,19.34
2016-07-02T06:19:03.679Z,19.39
2016-07-02T06:20:04.312Z,19.4
2016-07-02T06:21:04.295Z,19.47
2016-07-02T06:22:03.645Z,19.29
2016-07-02T06:23:04.261Z,19.4
2016-07-02T06:24:03.630Z,19.34
2016-07-02T06:25:03.613Z,19.52
2016-07-02T06:26:04.213Z,19.51
2016-07-02T06:27:04.206Z,19.49
2016-07-02T06:28:02.922Z,19.55
2016-07-02T06:29:04.171Z,19.55
2016-07-02T06:30:04.150Z,19.66
2016-07-02T06:31:04.140Z,19.64
2016-07-02T06:32:04.117Z,19.54
2016-07-02T06:33:04.111Z,19.56
2016-07-02T06:34:04.091Z,19.66
2016-07-02T06:35:04.082Z,19.63
2016-07-02T06:36:04.053Z,19.41
2016-07-02T06:37:04.056Z,19.52
2016-07-02T06:38:04.040Z,19.7
2016-07-02T06:39:03.392Z,19.77
2016-07-02T06:40:03.371Z,19.67
2016-07-02T06:41:03.369Z,19.67
2016-07-02T06:42:03.972Z,19.69
2016-07-02T06:43:03.964Z,19.59
2016-07-02T06:44:03.954Z,19.56
2016-07-02T06:45:03.946Z,19.56
2016-07-02T06:46:03.920Z,19.63
2016-07-02T06:47:03.908Z,19.74
2016-07-02T06:48:03.893Z,19.88
2016-07-02T06:49:03.237Z,19.79
2016-07-02T06:50:03.879Z,19.84
2016-07-02T06:51:03.240Z,19.92
2016-07-02T06:52:03.202Z,19.79
2016-07-02T06:53:03.184Z,19.85
2016-07-02T06:54:03.810Z,19.94
2016-07-02T06:55:03.158Z,19.91
2016-07-02T06:56:03.771Z,19.85
2016-07-02T06:57:02.501Z,19.92
2016-07-02T06:58:03.114Z,19.91
2016-07-02T06:59:03.728Z,19.89
2016-07-02T07:00:03.715Z,19.86
2016-07-02T07:01:03.701Z,19.99
2016-07-02T07:02:03.680Z,20.06
2016-07-02T07:03:03.672Z,20.06
2016-07-02T07:04:03.663Z,19.99
2016-07-02T07:05:03.009Z,19.79
2016-07-02T07:06:03.619Z,19.81
2016-07-02T07:07:02.984Z,19.92
2016-07-02T07:08:02.965Z,20.03
2016-07-02T07:09:03.586Z,20.02
2016-07-02T07:10:03.569Z,20.1
2016-07-02T07:11:02.911Z,20.04
2016-07-02T07:12:03.533Z,20.11
2016-07-02T07:13:02.886Z,20.07
2016-07-02T07:14:03.509Z,20.03
2016-07-02T07:15:03.503Z,20.09
2016-07-02T07:16:02.853Z,20.06
2016-07-02T07:17:02.838Z,20.06
2016-07-02T07:18:02.814Z,20.07
2016-07-02T07:19:02.810Z,20.06
2016-07-02T07:20:03.421Z,20.19
2016-07-02T07:21:03.408Z,20.26
2016-07-02T07:22:03.399Z,20.19
2016-07-02T07:23:03.383Z,20.13
2016-07-02T07:24:03.361Z,20.1
2016-07-02T07:25:03.346Z,20.14
2016-07-02T07:26:02.703Z,19.94
2016-07-02T07:27:02.686Z,20
2016-07-02T07:28:02.053Z,20.07
2016-07-02T07:29:02.662Z,20.13
2016-07-02T07:30:03.276Z,20.14
2016-07-02T07:31:02.637Z,20.21
2016-07-02T07:32:03.251Z,20.13
2016-07-02T07:33:03.233Z,20.29
2016-07-02T07:34:02.586Z,20.18
2016-07-02T07:35:03.210Z,20.25
2016-07-02T07:36:03.191Z,20.4
2016-07-02T07:37:02.544Z,20.19
2016-07-02T07:38:02.531Z,20.28
2016-07-02T07:39:03.142Z,20.37
2016-07-02T07:40:03.128Z,20.24
2016-07-02T07:41:02.481Z,20.32
2016-07-02T07:42:03.103Z,20.31
2016-07-02T07:43:02.455Z,20.39
2016-07-02T07:44:03.077Z,20.48
2016-07-02T07:45:03.063Z,20.39
2016-07-02T07:46:03.052Z,20.58
2016-07-02T07:47:02.396Z,20.56
2016-07-02T07:48:02.400Z,20.56
2016-07-02T07:49:02.370Z,20.52
2016-07-02T07:50:02.993Z,20.5
2016-07-02T07:51:01.717Z,20.36
2016-07-02T07:52:01.695Z,20.4
2016-07-02T07:53:02.946Z,20.39
2016-07-02T07:54:02.300Z,20.44
2016-07-02T07:55:02.292Z,20.4
2016-07-02T07:56:02.901Z,20.6
2016-07-02T07:57:02.258Z,20.72
2016-07-02T07:58:01.601Z,20.59
2016-07-02T07:59:02.235Z,20.63
2016-07-02T08:00:02.850Z,20.63
2016-07-02T08:01:02.825Z,20.72
2016-07-02T08:02:02.817Z,20.82
2016-07-02T08:03:02.799Z,20.69
2016-07-02T08:04:02.152Z,20.8
2016-07-02T08:05:02.143Z,20.69
2016-07-02T08:06:02.753Z,20.59
2016-07-02T08:07:02.107Z,20.63
2016-07-02T08:08:02.092Z,20.74
2016-07-02T08:09:02.715Z,20.78
2016-07-02T08:10:02.705Z,20.77
2016-07-02T08:11:02.686Z,20.69
2016-07-02T08:12:02.670Z,20.74
2016-07-02T08:13:01.387Z,20.8
2016-07-02T08:14:02.644Z,20.84
2016-07-02T08:15:02.632Z,20.84
2016-07-02T08:16:01.350Z,20.97
2016-07-02T08:17:02.602Z,21.12
2016-07-02T08:18:02.581Z,20.99
2016-07-02T08:19:02.574Z,21.06
2016-07-02T08:20:02.558Z,21.17
2016-07-02T08:21:02.537Z,21.17
2016-07-02T08:22:01.901Z,21.18
2016-07-02T08:23:01.884Z,21.2
2016-07-02T08:24:02.496Z,20.96
2016-07-02T08:25:02.489Z,21
2016-07-02T08:26:02.472Z,20.97
2016-07-02T08:27:01.814Z,21.11
2016-07-02T08:28:01.812Z,21.22
2016-07-02T08:29:02.430Z,21.2
2016-07-02T08:30:01.778Z,21.06
2016-07-02T08:31:01.765Z,21.02
2016-07-02T08:32:01.110Z,21.14
2016-07-02T08:33:01.734Z,21.12
2016-07-02T08:34:02.355Z,21.33
2016-07-02T08:35:02.351Z,21.43
2016-07-02T08:36:02.332Z,21.33
2016-07-02T08:37:02.315Z,21.51
2016-07-02T08:38:01.659Z,21.46
2016-07-02T08:39:01.648Z,21.29
2016-07-02T08:40:01.628Z,21.37
2016-07-02T08:41:01.626Z,21.39
2016-07-02T08:42:00.984Z,21.51
2016-07-02T08:43:02.227Z,21.45
2016-07-02T08:44:01.589Z,21.42
2016-07-02T08:45:01.569Z,21.46
2016-07-02T08:46:00.921Z,21.57
2016-07-02T08:47:02.175Z,21.79
2016-07-02T08:48:01.520Z,21.82
2016-07-02T08:49:01.497Z,21.95
2016-07-02T08:50:01.496Z,21.95
2016-07-02T08:51:01.474Z,21.92
2016-07-02T08:52:02.096Z,21.96
2016-07-02T08:53:02.089Z,21.83
2016-07-02T08:54:01.441Z,21.98
2016-07-02T08:55:02.054Z,21.95
2016-07-02T08:56:01.407Z,22.07
2016-07-02T08:57:01.395Z,22.14
2016-07-02T08:58:02.030Z,22.13
2016-07-02T08:59:01.372Z,22.29
2016-07-02T09:00:01.364Z,22.25
2016-07-02T09:01:01.973Z,22.39
2016-07-02T09:02:01.970Z,22.41
2016-07-02T09:03:01.942Z,22.5
2016-07-02T09:04:01.933Z,22.48
2016-07-02T09:05:01.925Z,22.6
2016-07-02T09:06:01.907Z,22.47
2016-07-02T09:07:01.886Z,22.5
2016-07-02T09:08:01.881Z,22.65
2016-07-02T09:09:01.235Z,22.7
2016-07-02T09:10:01.855Z,22.65
2016-07-02T09:11:01.835Z,22.83
2016-07-02T09:12:01.824Z,22.85
2016-07-02T09:13:01.180Z,22.88
2016-07-02T09:14:01.166Z,22.94
2016-07-02T09:15:01.158Z,23.05
2016-07-02T09:16:01.779Z,23.08
2016-07-02T09:17:01.119Z,22.88
2016-07-02T09:18:01.116Z,22.85
2016-07-02T09:19:01.094Z,22.9
2016-07-02T09:20:01.717Z,22.78
2016-07-02T09:21:01.066Z,22.94
2016-07-02T09:22:01.050Z,23.1
2016-07-02T09:23:01.672Z,23.13
2016-07-02T09:24:01.660Z,23.13
2016-07-02T09:25:01.650Z,23.09
2016-07-02T09:26:01.632Z,23.21
2016-07-02T09:27:00.986Z,23.31
2016-07-02T09:28:01.604Z,23.4
2016-07-02T09:29:00.957Z,23.41
2016-07-02T09:30:00.951Z,23.55
2016-07-02T09:31:01.562Z,23.47
2016-07-02T09:32:00.916Z,23.36
2016-07-02T09:33:01.537Z,23.36
2016-07-02T09:34:01.528Z,23.58
2016-07-02T09:35:00.882Z,23.74
2016-07-02T09:36:01.502Z,23.86
2016-07-02T09:37:01.484Z,23.68
2016-07-02T09:38:00.840Z,23.63
2016-07-02T09:39:00.820Z,23.76
2016-07-02T09:40:01.442Z,23.86
2016-07-02T09:41:01.425Z,23.78
2016-07-02T09:42:01.412Z,23.96
2016-07-02T09:43:00.779Z,23.87
2016-07-02T09:44:00.762Z,23.87
2016-07-02T09:45:01.387Z,23.99
2016-07-02T09:46:00.728Z,24.17
2016-07-02T09:47:00.722Z,24.1
2016-07-02T09:48:01.338Z,24.14
2016-07-02T09:49:01.322Z,24.14
2016-07-02T09:50:00.686Z,24.03
2016-07-02T09:51:01.307Z,24.17
2016-07-02T09:52:01.291Z,24.14
2016-07-02T09:53:01.280Z,23.93
2016-07-02T09:54:00.619Z,23.93
2016-07-02T09:55:00.619Z,23.96
2016-07-02T09:56:01.237Z,24.08
2016-07-02T09:57:00.590Z,24.14
2016-07-02T09:58:01.216Z,24.13
2016-07-02T09:59:01.197Z,23.98
2016-07-02T09:59:59.908Z,24.23
2016-07-02T10:01:01.183Z,24.03
2016-07-02T10:02:00.531Z,24.13
2016-07-02T10:03:00.512Z,24.13
2016-07-02T10:04:00.506Z,24.13
2016-07-02T10:05:00.496Z,24.1
2016-07-02T10:06:00.470Z,24.13
2016-07-02T10:07:00.463Z,24.16
2016-07-02T10:07:59.812Z,24.11
2016-07-02T10:09:01.069Z,24.29
2016-07-02T10:10:01.056Z,24.2
2016-07-02T10:11:01.042Z,24.32
2016-07-02T10:12:01.021Z,24.36
2016-07-02T10:13:00.374Z,24.35
2016-07-02T10:14:00.363Z,24.39
2016-07-02T10:15:00.987Z,24.55
2016-07-02T10:16:00.352Z,24.55
2016-07-02T10:16:59.691Z,24.53
2016-07-02T10:18:00.312Z,24.65
2016-07-02T10:19:00.935Z,24.7
2016-07-02T10:20:00.920Z,24.89
2016-07-02T10:21:00.273Z,25.03
2016-07-02T10:22:00.273Z,25.08
2016-07-02T10:23:00.885Z,25.14
2016-07-02T10:24:00.877Z,25.16
2016-07-02T10:25:00.231Z,25.13
2016-07-02T10:26:00.851Z,25.29
2016-07-02T10:27:00.841Z,25.46
2016-07-02T10:28:00.823Z,25.48
2016-07-02T10:29:00.816Z,25.44
2016-07-02T10:30:00.792Z,25.46
2016-07-02T10:31:00.784Z,25.5
2016-07-02T10:32:00.776Z,25.54
2016-07-02T10:33:00.767Z,25.58
2016-07-02T10:34:00.751Z,25.66
2016-07-02T10:35:00.111Z,25.63
2016-07-02T10:36:00.732Z,25.66
2016-07-02T10:37:00.725Z,25.91
2016-07-02T10:38:00.700Z,26
2016-07-02T10:39:00.057Z,26.18
2016-07-02T10:39:59.402Z,26.19
2016-07-02T10:41:00.667Z,26.34
2016-07-02T10:42:00.657Z,26.23
2016-07-02T10:43:00.007Z,26.4
2016-07-02T10:43:59.991Z,26.38
2016-07-02T10:45:00.621Z,26.51
2016-07-02T10:45:59.962Z,26.26
2016-07-02T10:47:00.595Z,26.36
2016-07-02T10:48:00.576Z,26.38
2016-07-02T10:49:00.569Z,26.4
2016-07-02T10:50:00.553Z,26.52
2016-07-02T10:50:59.911Z,26.6
2016-07-02T10:52:00.537Z,26.68
2016-07-02T10:52:59.883Z,26.68
2016-07-02T10:53:59.870Z,26.85
2016-07-02T10:54:59.874Z,26.85
2016-07-02T10:55:59.857Z,26.83
2016-07-02T10:57:00.473Z,27.03
2016-07-02T10:57:59.830Z,27.18
2016-07-02T10:59:00.450Z,27.29
2016-07-02T10:59:59.811Z,27.42
2016-07-02T11:01:00.428Z,27.64
2016-07-02T11:01:59.786Z,27.36
2016-07-02T11:02:59.142Z,27.08
2016-07-02T11:04:00.391Z,26.97
2016-07-02T11:04:59.740Z,27.17
2016-07-02T11:05:59.744Z,27
2016-07-02T11:07:00.370Z,27.08
2016-07-02T11:07:59.725Z,27
2016-07-02T11:08:59.707Z,27.03
2016-07-02T11:10:00.329Z,27.26
2016-07-02T11:11:00.321Z,27.7
2016-07-02T11:12:00.309Z,28.07
2016-07-02T11:12:59.665Z,28.23
2016-07-02T11:13:59.656Z,28.48
2016-07-02T11:15:00.271Z,28.29
2016-07-02T11:16:00.259Z,28.57
2016-07-02T11:16:59.623Z,28.27
2016-07-02T11:17:59.604Z,27.92
2016-07-02T11:19:00.229Z,28.05
2016-07-02T11:20:00.220Z,27.78
2016-07-02T11:20:59.580Z,27.59
2016-07-02T11:21:59.567Z,27.87
2016-07-02T11:22:59.554Z,27.98
2016-07-02T11:24:00.167Z,28.37
2016-07-02T11:24:59.532Z,28.75
2016-07-02T11:26:00.152Z,28.89
2016-07-02T11:26:59.522Z,28.67
2016-07-02T11:27:59.648Z,28.62
2016-07-02T11:29:00.123Z,28.63
2016-07-02T11:29:59.480Z,28.45
2016-07-02T11:31:00.104Z,28.1
2016-07-02T11:31:59.457Z,28.11
2016-07-02T11:32:59.451Z,28.44
2016-07-02T11:33:59.435Z,28.54
2016-07-02T11:34:58.793Z,28.51
2016-07-02T11:36:00.049Z,28.78
2016-07-02T11:37:00.054Z,28.98
2016-07-02T11:37:59.392Z,29.2
2016-07-02T11:38:59.385Z,29.41
2016-07-02T11:39:58.739Z,29.16
2016-07-02T11:41:00.009Z,28.81
2016-07-02T11:41:59.992Z,28.74
2016-07-02T11:42:59.993Z,28.81
2016-07-02T11:43:59.995Z,28.76
2016-07-02T11:45:00.138Z,28.98
2016-07-02T11:45:59.971Z,28.63
2016-07-02T11:46:59.973Z,28.97
2016-07-02T11:47:59.967Z,29.31
2016-07-02T11:48:59.959Z,29.63
2016-07-02T11:49:59.950Z,30.02
2016-07-02T11:50:59.943Z,30.62
2016-07-02T11:51:59.950Z,31.07
2016-07-02T11:52:59.308Z,31.1
2016-07-02T11:53:59.942Z,31.28
2016-07-02T11:54:59.930Z,31.2
2016-07-02T11:55:59.923Z,31.46
2016-07-02T11:56:59.924Z,32.04
2016-07-02T11:57:58.659Z,31.76
2016-07-02T11:58:59.292Z,31.96
2016-07-02T11:59:58.652Z,31.94
2016-07-02T12:00:59.281Z,32.52
2016-07-02T12:01:59.284Z,32.97
2016-07-02T12:02:59.928Z,32.51
2016-07-02T12:03:59.924Z,31.84
2016-07-02T12:04:59.916Z,31.8
2016-07-02T12:05:59.908Z,31.97
2016-07-02T12:06:59.900Z,32.14
2016-07-02T12:07:59.917Z,32.29
2016-07-02T12:08:59.904Z,31.99
2016-07-02T12:09:59.267Z,32.43
2016-07-02T12:10:59.903Z,32.51
2016-07-02T12:11:59.269Z,32.67
2016-07-02T12:12:59.892Z,32.63
2016-07-02T12:13:59.263Z,32.18
2016-07-02T12:14:59.266Z,31.9
2016-07-02T12:15:59.258Z,32.26
2016-07-02T12:16:59.263Z,32.63
2016-07-02T12:17:59.256Z,31.99
2016-07-02T12:18:59.887Z,31.55
2016-07-02T12:19:59.895Z,32.31
2016-07-02T12:20:59.262Z,32.51
2016-07-02T12:21:59.261Z,32.4
2016-07-02T12:22:59.896Z,32.3
2016-07-02T12:23:59.248Z,32.55
2016-07-02T12:24:59.272Z,33
2016-07-02T12:25:59.260Z,33.42
2016-07-02T12:26:59.905Z,33.83
2016-07-02T12:27:59.884Z,33.71
2016-07-02T12:28:59.395Z,34.11
2016-07-02T12:29:59.250Z,33.62
2016-07-02T12:30:59.890Z,32.89
2016-07-02T12:31:59.250Z,33.15
2016-07-02T12:32:59.246Z,33.74
2016-07-02T12:33:59.880Z,33.79
2016-07-02T12:34:59.261Z,33.19
2016-07-02T12:35:59.884Z,33.09
2016-07-02T12:36:59.886Z,33.31
2016-07-02T12:37:59.241Z,33.31
2016-07-02T12:38:59.881Z,32.78
2016-07-02T12:39:59.884Z,33.17
2016-07-02T12:40:59.885Z,32.6
2016-07-02T12:41:59.249Z,32.43
2016-07-02T12:42:59.888Z,32.07
2016-07-02T12:43:59.881Z,31.8
2016-07-02T12:44:59.882Z,31.89
2016-07-02T12:45:59.878Z,31.99
2016-07-02T12:46:59.253Z,31.92
2016-07-02T12:47:59.881Z,32.37
2016-07-02T12:48:59.258Z,32.71
2016-07-02T12:49:59.245Z,32.75
2016-07-02T12:50:59.888Z,33.31
2016-07-02T12:51:59.244Z,33.94
2016-07-02T12:52:59.885Z,33.12
2016-07-02T12:53:59.243Z,33.01
2016-07-02T12:54:59.879Z,33.04
2016-07-02T12:55:59.886Z,32.53